Time;durP1;ratioP1;P1;durP2;ratioP2;P2;SDS_P1;SDS_P2;PMS_P1;PMS_P2;Temp;Humidity;BMP_temperature;BMP_pressure;BME280_temperature;BME280_humidity;BME280_pressure;Samples;Min_cycle;Max_cycle;Signal;HPM_P1;HPM_P2
2021/04/21 00:00:11;;;;;;;10.43;7.95;;;12.90;99.90;;;;;;5075194;28;20036;-72
2021/04/21 00:02:37;;;;;;;14.65;7.53;;;12.90;99.90;;;;;;5075098;28;20444;-70
2021/04/21 00:05:05;;;;;;;9.75;7.38;;;12.90;99.90;;;;;;5092698;28;20024;-72
2021/04/21 00:07:32;;;;;;;17.02;10.85;;;12.90;99.90;;;;;;5093102;28;20032;-71
2021/04/21 00:09:59;;;;;;;13.23;8.63;;;12.70;99.90;;;;;;5092430;28;20110;-71
2021/04/21 00:12:26;;;;;;;11.15;8.00;;;12.60;99.90;;;;;;5074942;28;20058;-70
2021/04/21 00:14:53;;;;;;;13.90;7.95;;;12.70;99.90;;;;;;5080623;28;20078;-70
2021/04/21 00:17:24;;;;;;;10.38;7.78;;;12.70;99.90;;;;;;5090760;28;20062;-71
2021/04/21 00:19:52;;;;;;;11.60;7.82;;;12.60;99.90;;;;;;5092837;28;20071;-70
2021/04/21 00:22:20;;;;;;;10.27;7.25;;;12.70;99.90;;;;;;5092950;28;20032;-70
2021/04/21 00:24:48;;;;;;;11.85;7.82;;;12.50;99.90;;;;;;5091032;28;20074;-71
2021/04/21 00:27:19;;;;;;;14.77;9.15;;;12.60;99.90;;;;;;5091688;28;20024;-71
2021/04/21 00:29:49;;;;;;;15.65;8.90;;;12.50;99.90;;;;;;5090853;28;20031;-70
2021/04/21 00:32:17;;;;;;;13.88;8.65;;;12.50;99.90;;;;;;5092624;28;20050;-71
2021/04/21 00:34:45;;;;;;;13.65;7.70;;;12.60;99.90;;;;;;5090745;28;20472;-70
2021/04/21 00:37:12;;;;;;;14.55;8.32;;;12.60;99.90;;;;;;5092836;28;20039;-71
2021/04/21 00:39:42;;;;;;;14.00;8.85;;;12.50;99.90;;;;;;5091275;28;20032;-70
2021/04/21 00:42:35;;;;;;;10.77;7.93;;;12.40;99.90;;;;;;5093033;28;20146;-71
2021/04/21 00:45:13;;;;;;;13.15;8.43;;;12.50;99.90;;;;;;5091855;28;20040;-71
2021/04/21 00:47:59;;;;;;;15.88;9.73;;;12.30;99.90;;;;;;5091339;28;20136;-70
2021/04/21 00:50:42;;;;;;;12.77;8.45;;;12.30;99.90;;;;;;5073718;28;20036;-70
2021/04/21 00:53:20;;;;;;;14.00;8.25;;;12.30;99.90;;;;;;5090313;28;20036;-71
2021/04/21 00:56:01;;;;;;;12.93;8.95;;;12.20;99.90;;;;;;5090497;28;20024;-70
2021/04/21 00:58:45;;;;;;;11.43;8.45;;;12.30;99.90;;;;;;5091151;28;20115;-70
2021/04/21 01:01:12;;;;;;;14.07;9.50;;;12.30;99.90;;;;;;5091196;28;20421;-70
2021/04/21 01:03:41;;;;;;;10.55;7.65;;;12.20;99.90;;;;;;5090704;28;20043;-71
2021/04/21 01:06:19;;;;;;;12.43;8.90;;;12.20;99.90;;;;;;5091553;28;20028;-71
2021/04/21 01:08:56;;;;;;;13.35;8.60;;;12.20;99.90;;;;;;5091894;28;20082;-72
2021/04/21 01:11:37;;;;;;;12.50;9.00;;;12.20;99.90;;;;;;5090733;28;20024;-70
2021/04/21 01:14:16;;;;;;;9.17;8.13;;;12.20;99.90;;;;;;5091290;28;20115;-70
2021/04/21 01:16:43;;;;;;;8.10;7.15;;;12.20;99.90;;;;;;5073936;28;20130;-71
2021/04/21 01:19:41;;;;;;;16.05;8.57;;;12.20;99.90;;;;;;5073323;28;20032;-71
2021/04/21 01:22:26;;;;;;;11.43;7.90;;;12.10;99.90;;;;;;5091421;28;20027;-70
2021/04/21 01:25:18;;;;;;;13.38;8.48;;;12.10;99.90;;;;;;5073173;28;20119;-70
2021/04/21 01:27:49;;;;;;;16.42;8.75;;;12.00;99.90;;;;;;5091702;28;20106;-70
2021/04/21 01:30:20;;;;;;;8.43;7.30;;;12.00;99.90;;;;;;5073702;28;20149;-71
2021/04/21 01:32:52;;;;;;;10.70;8.70;;;12.00;99.90;;;;;;5073069;28;20035;-71
2021/04/21 01:35:21;;;;;;;12.02;8.40;;;12.00;99.90;;;;;;5073204;28;20028;-71
2021/04/21 01:37:49;;;;;;;15.65;8.55;;;12.00;99.90;;;;;;5091241;28;20032;-70
2021/04/21 01:40:39;;;;;;;9.50;8.35;;;12.00;99.90;;;;;;5073541;28;20039;-70
2021/04/21 01:43:17;;;;;;;11.50;8.48;;;12.10;99.90;;;;;;5090983;28;20020;-70
2021/04/21 01:45:44;;;;;;;12.45;8.27;;;12.00;99.90;;;;;;5073381;28;20118;-70
2021/04/21 01:48:19;;;;;;;15.65;9.18;;;12.00;99.90;;;;;;5090594;28;20051;-69
2021/04/21 01:50:45;;;;;;;11.63;9.18;;;12.00;99.90;;;;;;5091336;28;20361;-70
2021/04/21 01:53:39;;;;;;;10.48;7.95;;;12.00;99.90;;;;;;5090654;28;20118;-71
2021/04/21 01:56:14;;;;;;;12.15;8.82;;;11.90;99.90;;;;;;5072486;28;20043;-70
2021/04/21 01:58:46;;;;;;;13.70;9.77;;;11.90;99.90;;;;;;5091358;28;20465;-70
2021/04/21 02:01:51;;;;;;;10.68;8.98;;;11.70;99.90;;;;;;5090580;28;20030;-71
2021/04/21 02:04:46;;;;;;;14.70;8.98;;;11.60;99.90;;;;;;5072636;28;20111;-72
2021/04/21 02:07:45;;;;;;;11.90;9.10;;;11.50;99.90;;;;;;5053703;28;20054;-71
2021/04/21 02:10:36;;;;;;;12.25;9.70;;;11.50;99.90;;;;;;5069457;28;20424;-70
2021/04/21 02:13:20;;;;;;;14.30;9.23;;;11.30;99.90;;;;;;5072249;28;20036;-70
2021/04/21 02:16:09;;;;;;;15.48;8.75;;;11.30;99.90;;;;;;5090773;28;20087;-71
2021/04/21 02:18:52;;;;;;;12.40;9.32;;;11.30;99.90;;;;;;5072748;28;20039;-71
2021/04/21 02:21:27;;;;;;;11.93;8.90;;;11.30;99.90;;;;;;5091199;28;20074;-71
2021/04/21 02:24:13;;;;;;;13.40;9.00;;;11.40;99.90;;;;;;5090339;28;20483;-71
2021/04/21 02:26:51;;;;;;;13.88;9.27;;;11.30;99.90;;;;;;5072813;28;20127;-70
2021/04/21 02:29:41;;;;;;;11.50;8.25;;;11.30;99.90;;;;;;5072695;28;20036;-72
2021/04/21 02:32:38;;;;;;;13.00;8.68;;;11.40;99.90;;;;;;5071989;28;20048;-70
2021/04/21 02:35:19;;;;;;;11.32;8.75;;;11.40;99.90;;;;;;5072004;28;20016;-71
2021/04/21 02:38:14;;;;;;;12.93;9.03;;;11.40;99.90;;;;;;5090852;28;20039;-71
2021/04/21 02:41:04;;;;;;;12.40;9.00;;;11.30;99.90;;;;;;5090079;28;20320;-71
2021/04/21 02:43:57;;;;;;;12.02;9.05;;;11.30;99.90;;;;;;5072381;28;20572;-70
2021/04/21 02:46:36;;;;;;;14.13;8.45;;;11.10;99.90;;;;;;5090991;28;20040;-71
2021/04/21 02:49:49;;;;;;;14.18;8.82;;;11.20;99.90;;;;;;5090142;28;20042;-71
2021/04/21 02:52:22;;;;;;;10.02;8.50;;;11.10;99.90;;;;;;4988532;28;20042;-71
2021/04/21 02:55:09;;;;;;;14.63;8.98;;;11.10;99.90;;;;;;4988874;28;20061;-71
2021/04/21 02:57:49;;;;;;;11.80;9.35;;;11.00;99.90;;;;;;5060908;28;20076;-71
2021/04/21 03:00:36;;;;;;;14.15;9.02;;;11.00;99.90;;;;;;5072030;28;20040;-70
2021/04/21 03:03:26;;;;;;;11.68;8.07;;;11.10;99.90;;;;;;5071776;28;20508;-71
2021/04/21 03:06:01;;;;;;;10.85;8.35;;;11.10;99.90;;;;;;5072058;28;20148;-72
2021/04/21 03:08:48;;;;;;;11.50;9.10;;;11.10;99.90;;;;;;5090465;28;20047;-70
2021/04/21 03:11:25;;;;;;;12.15;8.73;;;11.10;99.90;;;;;;5071616;28;20032;-70
2021/04/21 03:14:03;;;;;;;13.00;9.57;;;11.10;99.90;;;;;;5072139;28;20035;-71
2021/04/21 03:16:33;;;;;;;13.43;9.50;;;11.10;99.90;;;;;;5090276;28;20345;-70
2021/04/21 03:19:04;;;;;;;12.68;10.02;;;11.10;99.90;;;;;;5090308;28;20513;-70
2021/04/21 03:21:32;;;;;;;13.43;8.88;;;10.90;99.90;;;;;;5090482;28;20496;-71
2021/04/21 03:24:10;;;;;;;12.73;10.25;;;10.90;99.90;;;;;;5089917;28;20033;-73
2021/04/21 03:26:40;;;;;;;13.35;9.45;;;10.80;99.90;;;;;;5072325;28;20028;-70
2021/04/21 03:29:09;;;;;;;12.18;9.77;;;10.80;99.90;;;;;;5071627;28;20024;-72
2021/04/21 03:31:36;;;;;;;15.90;11.23;;;10.90;99.90;;;;;;5090470;28;20024;-72
2021/04/21 03:34:08;;;;;;;15.10;10.77;;;10.70;99.90;;;;;;5071588;28;20032;-71
2021/04/21 03:36:36;;;;;;;14.32;10.48;;;10.70;99.90;;;;;;5090449;28;20469;-71
2021/04/21 03:39:02;;;;;;;13.93;10.82;;;10.70;99.90;;;;;;5089992;28;20450;-71
2021/04/21 03:41:28;;;;;;;13.43;10.65;;;10.60;99.90;;;;;;5090312;28;20028;-71
2021/04/21 03:43:54;;;;;;;14.82;11.05;;;10.50;99.90;;;;;;5090304;28;20031;-71
2021/04/21 03:46:20;;;;;;;13.18;11.10;;;10.50;99.90;;;;;;5089800;28;20118;-70
2021/04/21 03:48:46;;;;;;;14.93;10.88;;;10.50;99.90;;;;;;5071879;28;20063;-70
2021/04/21 03:51:14;;;;;;;21.23;12.15;;;10.50;99.90;;;;;;5089236;28;20426;-71
2021/04/21 03:53:41;;;;;;;18.98;10.60;;;10.40;99.90;;;;;;5093697;28;20029;-70
2021/04/21 03:56:11;;;;;;;25.27;12.27;;;10.60;99.90;;;;;;5074684;28;20077;-71
2021/04/21 03:58:38;;;;;;;13.68;10.30;;;10.70;99.90;;;;;;5075467;28;20021;-70
2021/04/21 04:01:07;;;;;;;19.67;10.85;;;10.80;99.90;;;;;;5074600;28;20052;-71
2021/04/21 04:03:34;;;;;;;14.07;9.60;;;10.90;99.90;;;;;;5075307;28;20024;-71
2021/04/21 04:06:09;;;;;;;12.93;9.43;;;10.90;99.90;;;;;;5093182;28;20461;-70
2021/04/21 04:08:49;;;;;;;22.10;9.38;;;10.90;99.90;;;;;;5093474;28;20053;-71
2021/04/21 04:11:18;;;;;;;15.57;9.27;;;11.00;99.90;;;;;;5074614;28;20186;-71
2021/04/21 04:13:47;;;;;;;14.05;9.63;;;11.00;99.90;;;;;;5093113;28;20028;-71
2021/04/21 04:16:13;;;;;;;15.30;10.50;;;10.80;99.90;;;;;;5092686;28;20048;-71
2021/04/21 04:18:41;;;;;;;14.20;9.77;;;10.70;99.90;;;;;;5092866;28;20148;-72
2021/04/21 04:21:08;;;;;;;14.82;9.07;;;10.80;99.90;;;;;;5074211;28;20487;-70
2021/04/21 04:23:38;;;;;;;12.85;9.45;;;10.60;99.90;;;;;;5074709;28;20027;-71
2021/04/21 04:26:04;;;;;;;15.73;10.82;;;10.70;99.90;;;;;;5092571;28;20032;-70
2021/04/21 04:28:32;;;;;;;12.45;9.52;;;10.80;99.90;;;;;;5093155;28;20089;-71
2021/04/21 04:30:59;;;;;;;16.70;11.00;;;10.90;99.90;;;;;;5092353;28;20032;-72
2021/04/21 04:33:25;;;;;;;17.30;11.57;;;10.90;99.90;;;;;;5074336;28;20024;-71
2021/04/21 04:35:51;;;;;;;18.30;12.18;;;10.70;99.90;;;;;;5074871;28;20091;-70
2021/04/21 04:38:17;;;;;;;18.10;11.68;;;10.70;99.90;;;;;;5092292;28;20694;-71
2021/04/21 04:40:43;;;;;;;14.55;10.68;;;10.80;99.90;;;;;;5092558;28;20111;-71
2021/04/21 04:43:09;;;;;;;14.18;10.48;;;11.00;99.90;;;;;;5073872;28;20119;-71
2021/04/21 04:45:40;;;;;;;17.83;12.00;;;11.10;99.90;;;;;;5092697;28;20050;-71
2021/04/21 04:48:14;;;;;;;17.67;11.05;;;11.10;99.90;;;;;;5092283;28;20044;-70
2021/04/21 04:50:41;;;;;;;20.30;12.07;;;11.10;99.90;;;;;;5074468;28;20082;-70
2021/04/21 04:53:08;;;;;;;14.90;10.23;;;10.90;99.90;;;;;;5092000;28;20036;-71
2021/04/21 04:55:35;;;;;;;14.43;10.50;;;11.00;99.90;;;;;;5092303;28;20032;-71
2021/04/21 04:58:04;;;;;;;15.45;11.20;;;11.10;99.90;;;;;;5057163;28;20595;-69
2021/04/21 05:00:31;;;;;;;19.88;10.75;;;11.10;99.90;;;;;;5073792;28;20035;-70
2021/04/21 05:03:17;;;;;;;17.55;10.70;;;11.20;99.90;;;;;;5091903;28;20055;-71
2021/04/21 05:05:45;;;;;;;16.33;11.57;;;11.20;99.90;;;;;;5074133;28;20032;-70
2021/04/21 05:08:15;;;;;;;15.50;12.15;;;11.30;99.90;;;;;;5073374;28;20467;-71
2021/04/21 05:10:51;;;;;;;16.85;12.80;;;11.40;99.90;;;;;;5092198;28;20023;-70
2021/04/21 05:13:23;;;;;;;16.83;11.48;;;11.40;99.90;;;;;;5072850;28;20430;-71
2021/04/21 05:15:52;;;;;;;15.75;12.07;;;11.30;99.90;;;;;;5078333;28;20049;-69
2021/04/21 05:18:35;;;;;;;14.95;11.45;;;11.20;99.90;;;;;;5053290;28;20037;-69
2021/04/21 05:21:29;;;;;;;18.70;12.05;;;10.80;99.90;;;;;;5070951;28;20024;-69
2021/04/21 05:24:13;;;;;;;14.60;10.75;;;10.60;99.90;;;;;;5053594;28;20122;-69
2021/04/21 05:27:03;;;;;;;20.55;10.43;;;10.50;99.90;;;;;;5059820;28;20052;-62
2021/04/21 05:29:47;;;;;;;16.30;12.35;;;10.70;99.90;;;;;;5036423;28;20052;-62
2021/04/21 05:32:49;;;;;;;14.15;11.32;;;10.90;99.90;;;;;;5053015;28;20028;-61
2021/04/21 05:35:42;;;;;;;13.35;10.25;;;11.10;99.90;;;;;;5073524;28;20039;-63
2021/04/21 05:38:29;;;;;;;13.70;11.05;;;11.40;99.90;;;;;;5037953;28;20033;-72
2021/04/21 05:41:15;;;;;;;17.10;11.50;;;11.40;99.90;;;;;;5033131;28;20024;-73
2021/04/21 05:43:58;;;;;;;16.45;11.98;;;11.10;99.90;;;;;;5070281;28;20051;-72
2021/04/21 05:46:30;;;;;;;15.63;11.07;;;11.00;99.90;;;;;;5071683;28;20031;-72
2021/04/21 05:49:24;;;;;;;20.83;11.65;;;11.10;99.90;;;;;;5063129;28;20033;-74
2021/04/21 05:52:14;;;;;;;18.60;12.05;;;11.20;99.90;;;;;;5050977;28;20029;-72
2021/04/21 05:54:58;;;;;;;17.92;11.23;;;11.30;99.90;;;;;;5033001;28;20419;-72
2021/04/21 05:57:55;;;;;;;23.05;12.82;;;11.50;99.90;;;;;;5031837;28;20029;-71
2021/04/21 06:01:04;;;;;;;28.92;13.18;;;11.40;99.90;;;;;;5049400;28;20378;-73
2021/04/21 06:03:33;;;;;;;24.95;12.50;;;11.10;99.90;;;;;;5023098;28;20055;-71
2021/04/21 06:06:04;;;;;;;24.27;12.10;;;11.20;99.90;;;;;;5040555;28;20028;-73
2021/04/21 06:08:30;;;;;;;23.35;12.82;;;11.10;99.90;;;;;;5049916;28;20029;-73
2021/04/21 06:10:57;;;;;;;26.95;12.80;;;11.30;99.90;;;;;;5060458;28;20078;-72
2021/04/21 06:13:28;;;;;;;27.33;12.65;;;11.50;99.90;;;;;;5068493;28;20415;-72
2021/04/21 06:15:53;;;;;;;24.48;12.55;;;11.50;99.90;;;;;;5055878;28;20063;-73
2021/04/21 06:18:21;;;;;;;25.65;12.38;;;11.80;99.90;;;;;;5047304;28;20041;-72
2021/04/21 06:20:47;;;;;;;31.77;12.68;;;11.70;99.90;;;;;;5049298;28;20047;-72
2021/04/21 06:23:21;;;;;;;19.00;11.60;;;12.00;99.90;;;;;;5049409;28;20033;-72
2021/04/21 06:26:05;;;;;;;23.38;13.13;;;12.00;99.90;;;;;;5050640;28;20025;-71
2021/04/21 06:28:31;;;;;;;19.70;11.00;;;11.80;99.90;;;;;;5031726;28;20060;-71
2021/04/21 06:31:03;;;;;;;29.25;13.80;;;11.90;99.90;;;;;;5049505;28;20033;-72
2021/04/21 06:33:47;;;;;;;19.67;11.85;;;12.00;99.90;;;;;;5049024;28;20099;-71
2021/04/21 06:36:14;;;;;;;20.45;13.15;;;12.10;99.90;;;;;;5030324;28;20025;-72
2021/04/21 06:38:41;;;;;;;22.35;12.75;;;12.10;99.90;;;;;;5031254;28;20053;-72
2021/04/21 06:41:07;;;;;;;18.88;12.43;;;12.10;99.90;;;;;;5049940;28;20092;-73
2021/04/21 06:43:35;;;;;;;21.70;13.52;;;12.00;99.90;;;;;;5046768;28;20428;-72
2021/04/21 06:46:01;;;;;;;19.73;14.57;;;12.00;99.90;;;;;;5048463;28;20040;-72
2021/04/21 06:48:33;;;;;;;22.25;12.05;;;12.00;99.90;;;;;;5031310;28;20382;-72
2021/04/21 06:51:13;;;;;;;19.27;13.02;;;12.20;99.90;;;;;;5031113;28;20097;-73
2021/04/21 06:53:40;;;;;;;19.23;12.93;;;12.10;99.90;;;;;;5052732;28;20525;-73
2021/04/21 06:56:06;;;;;;;20.55;12.23;;;12.20;99.90;;;;;;5048144;28;20067;-72
2021/04/21 06:58:34;;;;;;;16.52;11.75;;;12.70;99.90;;;;;;5045235;28;20088;-72
2021/04/21 07:01:18;;;;;;;17.15;11.10;;;13.20;99.90;;;;;;5031427;28;20063;-73
2021/04/21 07:03:44;;;;;;;15.05;11.27;;;13.50;99.90;;;;;;5050369;28;20025;-72
2021/04/21 07:06:10;;;;;;;20.60;13.15;;;13.70;99.90;;;;;;5049472;28;20043;-73
2021/04/21 07:08:38;;;;;;;16.67;11.65;;;13.70;99.90;;;;;;5050780;28;20115;-72
2021/04/21 07:11:06;;;;;;;18.92;10.85;;;13.90;99.90;;;;;;5069060;28;20510;-72
2021/04/21 07:13:44;;;;;;;20.52;14.10;;;14.00;99.90;;;;;;5069342;28;20047;-71
2021/04/21 07:16:19;;;;;;;20.83;12.38;;;14.50;99.90;;;;;;5070087;28;20501;-72
2021/04/21 07:18:53;;;;;;;21.40;12.85;;;14.40;99.70;;;;;;5068854;28;20071;-72
2021/04/21 07:21:20;;;;;;;15.55;11.45;;;14.30;99.40;;;;;;5049580;28;20027;-72
2021/04/21 07:23:54;;;;;;;15.95;10.95;;;14.40;99.60;;;;;;5061703;28;20060;-72
2021/04/21 07:26:27;;;;;;;15.68;11.23;;;14.90;98.70;;;;;;5031489;28;20033;-73
2021/04/21 07:28:53;;;;;;;13.13;11.00;;;15.00;98.10;;;;;;5033253;28;20088;-72
2021/04/21 07:31:19;;;;;;;12.07;10.27;;;15.30;98.00;;;;;;5036378;28;20028;-72
2021/04/21 07:33:47;;;;;;;20.25;12.80;;;15.50;97.60;;;;;;5048854;28;20024;-73
2021/04/21 07:36:18;;;;;;;14.73;10.95;;;15.60;96.90;;;;;;5053080;28;20076;-73
2021/04/21 07:38:48;;;;;;;17.08;10.85;;;15.60;96.70;;;;;;5040389;28;20036;-71
2021/04/21 07:41:30;;;;;;;20.88;13.00;;;15.40;97.00;;;;;;5030847;28;20059;-72
2021/04/21 07:43:55;;;;;;;12.48;10.25;;;15.70;96.70;;;;;;5062653;28;20067;-73
2021/04/21 07:46:22;;;;;;;12.65;9.93;;;16.30;96.20;;;;;;5070836;28;20064;-72
2021/04/21 07:48:50;;;;;;;10.55;9.00;;;16.70;95.40;;;;;;5052401;28;20507;-72
2021/04/21 07:51:23;;;;;;;12.40;6.97;;;17.00;96.40;;;;;;5070328;28;20246;-71
2021/04/21 07:53:51;;;;;;;8.98;7.95;;;17.50;97.60;;;;;;5046244;28;20462;-71
2021/04/21 07:56:18;;;;;;;8.80;6.13;;;17.80;96.20;;;;;;5050531;28;20086;-71
2021/04/21 07:58:43;;;;;;;10.75;7.72;;;18.30;96.60;;;;;;5050678;28;20045;-72
2021/04/21 08:01:10;;;;;;;10.95;8.07;;;18.80;95.50;;;;;;5032458;28;20028;-71
2021/04/21 08:03:36;;;;;;;10.48;8.10;;;19.10;93.70;;;;;;5051394;28;20051;-71
2021/04/21 08:06:03;;;;;;;30.10;12.02;;;19.80;92.60;;;;;;5033070;28;20548;-74
2021/04/21 08:08:33;;;;;;;12.82;10.07;;;19.00;91.10;;;;;;5033925;28;20033;-73
2021/04/21 08:11:00;;;;;;;15.37;10.53;;;19.10;91.40;;;;;;5051668;28;20383;-73
2021/04/21 08:13:50;;;;;;;18.35;11.48;;;19.00;89.40;;;;;;5032609;28;20072;-72
2021/04/21 08:16:36;;;;;;;16.33;11.55;;;18.90;89.30;;;;;;5063075;28;20080;-73
2021/04/21 08:19:17;;;;;;;15.88;11.45;;;19.00;89.60;;;;;;5071278;28;20055;-74
2021/04/21 08:21:45;;;;;;;13.50;10.57;;;19.20;89.30;;;;;;5071570;28;20063;-73
2021/04/21 08:24:19;;;;;;;15.10;10.00;;;19.60;88.90;;;;;;5068571;28;20036;-73
2021/04/21 08:26:48;;;;;;;16.67;10.00;;;19.50;87.60;;;;;;5085297;28;20113;-71
2021/04/21 08:29:15;;;;;;;11.23;8.38;;;19.30;87.40;;;;;;5088711;28;20032;-72
2021/04/21 08:31:46;;;;;;;15.07;8.63;;;19.90;87.90;;;;;;5084477;28;20103;-72
2021/04/21 08:34:12;;;;;;;16.10;7.97;;;20.20;86.20;;;;;;5069082;28;20171;-73
2021/04/21 08:36:38;;;;;;;11.73;7.78;;;20.40;85.50;;;;;;5071121;28;20043;-63
2021/04/21 08:39:05;;;;;;;17.83;9.05;;;20.40;81.40;;;;;;5068274;28;20032;-72
2021/04/21 08:41:36;;;;;;;9.07;7.10;;;20.30;82.40;;;;;;5069752;28;20115;-71
2021/04/21 08:44:03;;;;;;;12.15;7.80;;;20.50;81.40;;;;;;5069387;28;20035;-73
2021/04/21 08:46:29;;;;;;;13.57;7.15;;;20.20;81.20;;;;;;5077493;28;20400;-72
2021/04/21 08:48:59;;;;;;;8.63;7.15;;;20.40;80.90;;;;;;5076334;28;20101;-73
2021/04/21 08:51:26;;;;;;;8.55;6.38;;;20.60;78.10;;;;;;5070061;28;20037;-72
2021/04/21 08:53:54;;;;;;;20.27;6.68;;;20.80;77.60;;;;;;5069331;28;20032;-72
2021/04/21 08:56:21;;;;;;;9.93;6.25;;;20.70;78.00;;;;;;5101366;28;20480;-73
2021/04/21 08:58:49;;;;;;;12.88;7.53;;;20.80;77.40;;;;;;5097487;28;20036;-73
2021/04/21 09:01:17;;;;;;;11.38;6.38;;;21.10;75.30;;;;;;5090516;28;20054;-72
2021/04/21 09:03:44;;;;;;;8.35;6.68;;;;;;;;;;5091363;28;20054;-72
2021/04/21 09:06:14;;;;;;;7.15;6.45;;;21.50;73.10;;;;;;5090244;28;20118;-72
2021/04/21 09:08:40;;;;;;;10.50;7.70;;;21.80;72.60;;;;;;5089434;28;20073;-72
2021/04/21 09:11:06;;;;;;;9.80;6.85;;;21.80;71.20;;;;;;5088799;28;20450;-71
2021/04/21 09:13:32;;;;;;;9.48;6.80;;;21.90;71.40;;;;;;5090750;28;20028;-67
2021/04/21 09:15:58;;;;;;;9.13;6.45;;;22.30;72.30;;;;;;5087949;28;20163;-68
2021/04/21 09:18:25;;;;;;;8.23;7.35;;;22.30;71.60;;;;;;5090260;28;20024;-74
2021/04/21 09:20:51;;;;;;;8.57;6.93;;;22.40;69.20;;;;;;5081726;28;20064;-71
2021/04/21 09:23:19;;;;;;;14.27;7.35;;;22.60;68.60;;;;;;5068093;28;20056;-69
2021/04/21 09:25:47;;;;;;;10.43;7.43;;;22.80;68.00;;;;;;5072794;28;20097;-70
2021/04/21 09:28:14;;;;;;;10.13;6.70;;;22.90;67.80;;;;;;5107872;28;20128;-73
2021/04/21 09:30:43;;;;;;;12.38;8.98;;;23.10;66.50;;;;;;5105962;28;20027;-74
2021/04/21 09:33:10;;;;;;;15.30;8.23;;;23.10;65.40;;;;;;5101393;28;20088;-72
2021/04/21 09:35:44;;;;;;;12.55;6.68;;;23.00;65.70;;;;;;5111447;28;20031;-75
2021/04/21 09:38:16;;;;;;;10.52;7.40;;;23.40;65.20;;;;;;5108090;28;20027;-72
2021/04/21 09:40:53;;;;;;;9.48;7.50;;;23.20;63.50;;;;;;5109219;28;20024;-73
2021/04/21 09:43:23;;;;;;;10.13;7.80;;;23.30;64.70;;;;;;5109558;28;20085;-72
2021/04/21 09:45:50;;;;;;;10.98;8.10;;;23.60;62.60;;;;;;5104521;28;20042;-62
2021/04/21 09:48:18;;;;;;;9.48;6.72;;;23.40;69.70;;;;;;5067618;28;20493;-62
2021/04/21 09:51:04;;;;;;;9.77;7.63;;;23.30;72.80;;;;;;5068344;28;20031;-66
2021/04/21 09:53:29;;;;;;;13.57;9.07;;;23.80;67.00;;;;;;5069209;28;20024;-61
2021/04/21 09:56:06;;;;;;;10.68;7.70;;;24.10;67.50;;;;;;5068538;28;20039;-62
2021/04/21 09:58:54;;;;;;;12.05;8.38;;;23.90;65.60;;;;;;5067954;28;20078;-62
2021/04/21 10:01:33;;;;;;;11.93;6.82;;;24.30;64.40;;;;;;5068760;28;20151;-61
2021/04/21 10:04:12;;;;;;;7.07;5.45;;;24.30;64.90;;;;;;5069600;28;20088;-63
2021/04/21 10:06:54;;;;;;;11.15;7.45;;;24.10;70.50;;;;;;5069229;28;20452;-69
2021/04/21 10:09:32;;;;;;;9.70;6.22;;;23.80;62.80;;;;;;5068802;28;20090;-63
2021/04/21 10:12:23;;;;;;;17.92;10.40;;;24.10;66.40;;;;;;5069323;28;20025;-61
2021/04/21 10:15:06;;;;;;;15.85;9.65;;;24.20;63.40;;;;;;5063652;28;20093;-68
2021/04/21 10:17:35;;;;;;;8.52;6.78;;;24.50;66.00;;;;;;5031302;28;20033;-63
2021/04/21 10:20:04;;;;;;;11.70;8.00;;;24.00;65.70;;;;;;5049539;28;20057;-62
2021/04/21 10:22:31;;;;;;;11.00;8.40;;;24.50;65.80;;;;;;5049286;28;20021;-65
2021/04/21 10:24:59;;;;;;;13.40;12.07;;;25.20;62.10;;;;;;5049535;28;20025;-62
2021/04/21 10:27:25;;;;;;;12.35;7.47;;;25.40;58.00;;;;;;5035034;28;20044;-62
2021/04/21 10:29:51;;;;;;;14.20;10.98;;;25.10;62.60;;;;;;5050521;28;20068;-64
2021/04/21 10:32:17;;;;;;;15.77;11.10;;;25.30;59.30;;;;;;5050239;28;20067;-64
2021/04/21 10:34:44;;;;;;;16.35;10.68;;;25.60;57.40;;;;;;5051008;28;20029;-62
2021/04/21 10:37:11;;;;;;;15.43;12.60;;;25.70;57.90;;;;;;5050417;28;20036;-63
2021/04/21 10:39:38;;;;;;;14.02;11.73;;;25.50;56.60;;;;;;5050714;28;20090;-68
2021/04/21 10:42:11;;;;;;;13.20;10.50;;;25.10;56.00;;;;;;5050159;28;20024;-62
2021/04/21 10:44:38;;;;;;;16.73;9.32;;;25.10;57.70;;;;;;5068797;28;20032;-67
2021/04/21 10:47:08;;;;;;;13.40;11.45;;;25.20;59.70;;;;;;5067703;28;20393;-63
2021/04/21 10:49:34;;;;;;;9.80;8.50;;;25.00;56.50;;;;;;5068565;28;20127;-62
2021/04/21 10:52:32;;;;;;;9.73;8.00;;;25.60;57.90;;;;;;5068742;28;20028;-63
2021/04/21 10:55:07;;;;;;;8.60;7.40;;;26.20;56.20;;;;;;5068978;28;20071;-67
2021/04/21 10:57:40;;;;;;;11.18;7.72;;;26.00;56.40;;;;;;5050847;28;20123;-67
2021/04/21 11:00:07;;;;;;;10.30;9.30;;;25.50;56.80;;;;;;5068273;28;20032;-62
2021/04/21 11:02:59;;;;;;;12.48;9.38;;;25.40;55.60;;;;;;5072463;28;20031;-62
2021/04/21 11:05:37;;;;;;;11.27;10.05;;;24.70;55.30;;;;;;5072275;28;20029;-64
2021/04/21 11:08:17;;;;;;;9.57;8.57;;;23.70;57.90;;;;;;5071762;28;20367;-78
2021/04/21 11:10:47;;;;;;;15.52;9.52;;;23.80;59.10;;;;;;5072091;28;20039;-62
2021/04/21 11:13:16;;;;;;;11.75;10.13;;;24.60;58.80;;;;;;5053594;28;20048;-63
2021/04/21 11:15:50;;;;;;;12.00;8.75;;;24.90;56.50;;;;;;5070935;28;20076;-63
2021/04/21 11:18:25;;;;;;;11.48;8.48;;;24.90;55.40;;;;;;5051873;28;20075;-65
2021/04/21 11:20:51;;;;;;;12.82;9.85;;;24.50;55.00;;;;;;5034471;28;20479;-64
2021/04/21 11:24:11;;;;;;;13.35;10.18;;;23.70;55.00;;;;;;5051661;28;20033;-62
2021/04/21 11:26:47;;;;;;;10.75;9.65;;;23.20;56.70;;;;;;4970614;28;20042;-64
2021/04/21 11:29:19;;;;;;;9.65;8.65;;;23.00;59.40;;;;;;5022454;28;20029;-62
2021/04/21 11:31:48;;;;;;;11.80;9.25;;;23.10;58.60;;;;;;5052332;28;20024;-62
2021/04/21 11:34:21;;;;;;;10.60;8.40;;;22.90;56.90;;;;;;5051658;28;20025;-63
2021/04/21 11:36:58;;;;;;;13.82;8.57;;;22.80;57.50;;;;;;5033969;28;20033;-63
2021/04/21 11:39:43;;;;;;;9.25;7.95;;;22.80;59.00;;;;;;5034349;28;20056;-62
2021/04/21 11:42:23;;;;;;;9.38;6.82;;;22.90;56.90;;;;;;5052364;28;20029;-64
2021/04/21 11:45:03;;;;;;;12.73;8.80;;;23.00;57.80;;;;;;5034694;28;20047;-64
2021/04/21 11:47:46;;;;;;;10.95;6.40;;;22.90;56.30;;;;;;5050759;28;20036;-64
2021/04/21 11:50:13;;;;;;;10.27;8.80;;;22.90;57.00;;;;;;5054185;28;20047;-62
2021/04/21 11:53:00;;;;;;;9.23;6.47;;;22.70;56.00;;;;;;5054815;28;20136;-66
2021/04/21 11:55:38;;;;;;;10.25;8.63;;;22.50;58.60;;;;;;5072340;28;20031;-62
2021/04/21 11:58:25;;;;;;;8.95;7.32;;;22.40;57.80;;;;;;5071337;28;20032;-76
2021/04/21 12:01:00;;;;;;;8.60;7.63;;;22.10;59.10;;;;;;5069920;28;20040;-62
2021/04/21 12:03:31;;;;;;;12.10;9.40;;;22.10;59.80;;;;;;5052937;28;20020;-61
2021/04/21 12:05:58;;;;;;;;;;;22.20;62.90;;;;;;5054345;28;20066;-61
2021/04/21 12:08:32;;;;;;;11.75;8.52;;;22.70;64.70;;;;;;5071030;28;19935;-62
2021/04/21 12:10:59;;;;;;;12.90;8.52;;;23.40;64.50;;;;;;5053495;28;20039;-62
2021/04/21 12:13:28;;;;;;;18.13;9.75;;;23.50;61.70;;;;;;5069867;28;20032;-62
2021/04/21 12:16:05;;;;;;;17.52;11.60;;;23.70;60.70;;;;;;5079135;28;20101;-62
2021/04/21 12:18:40;;;;;;;27.05;13.77;;;23.50;60.60;;;;;;5092840;28;20032;-65
2021/04/21 12:21:15;;;;;;;32.03;16.85;;;23.40;61.20;;;;;;5091860;28;20039;-64
2021/04/21 12:23:46;;;;;;;24.17;14.75;;;23.20;60.00;;;;;;5092563;28;20081;-62
2021/04/21 12:26:19;;;;;;;;;;;23.30;60.10;;;;;;5088918;28;20436;-64
2021/04/21 12:28:46;;;;;;;24.92;12.00;;;23.50;59.90;;;;;;5091874;28;19904;-62
2021/04/21 12:31:12;;;;;;;16.15;10.30;;;24.30;58.90;;;;;;5089777;28;20111;-69
2021/04/21 12:33:38;;;;;;;15.80;9.98;;;24.40;55.70;;;;;;5090995;28;20357;-63
2021/04/21 12:36:05;;;;;;;16.52;11.77;;;24.90;54.40;;;;;;5090707;28;20028;-76
2021/04/21 12:38:36;;;;;;;14.68;11.20;;;25.40;56.40;;;;;;5088407;28;20031;-62
2021/04/21 12:41:15;;;;;;;11.57;9.05;;;25.70;51.00;;;;;;5090865;28;20040;-66
2021/04/21 12:43:40;;;;;;;13.70;9.30;;;25.80;51.20;;;;;;5090365;28;20036;-63
2021/04/21 12:46:09;;;;;;;19.50;10.43;;;25.80;52.30;;;;;;5092784;28;20039;-76
2021/04/21 12:48:55;;;;;;;13.25;8.50;;;24.90;52.30;;;;;;5083382;28;20100;-62
2021/04/21 12:51:31;;;;;;;13.25;8.07;;;24.50;52.40;;;;;;5088681;28;20031;-63
2021/04/21 12:53:59;;;;;;;14.80;8.93;;;24.40;51.80;;;;;;5090254;28;20115;-63
2021/04/21 12:56:36;;;;;;;10.93;7.80;;;24.90;54.70;;;;;;5090379;28;20114;-62
2021/04/21 12:59:16;;;;;;;9.40;7.35;;;25.20;49.40;;;;;;5088698;28;20055;-75
2021/04/21 13:01:42;;;;;;;10.57;8.00;;;25.40;51.10;;;;;;5084371;28;20032;-63
2021/04/21 13:04:11;;;;;;;13.63;8.57;;;25.00;48.40;;;;;;5107841;28;20483;-65
2021/04/21 13:06:39;;;;;;;7.45;6.75;;;24.30;47.20;;;;;;5109362;28;20087;-63
2021/04/21 13:09:18;;;;;;;7.38;6.68;;;24.70;47.80;;;;;;5110817;28;20059;-65